PWSweather.com
Personal Weather Stations
Station Observations
KCOGRAND2
Redlands, Southcamp Road & Dakota Circle, Grand Junction, CO 81507

Redlands, Southcamp Road & Dakota CircleGrand Junction, CO 81507

Lat: 39.055, Lon: -108.637

Elevation: 4870

Station Type: RadioShack WX200

Latest ConditionsUpdated 4:29:20 PM MDT Saturday, May 30, 2015
Currently Today's Max Today's Min Today's Average
Temperature 81.5°F27.5°C 81.5°F27.5°C 52.7°F11.5°C 65.2°F18.4°C
Dew Point -5537.2°C 33.8°F1.0°C 15.1°F-9.4°C 28.9°F-1.7°C
Winds 5.0 mph SW8.0 kmh SW 9.0 mph N14.5 kmh N - 5.1 mph 8.2 kmh
Wind Gusts 8.7 mph14.0 kmh 19.0 mph30.6 kmh - -
Humidity - 46% 11% 31%
Pressure 25.13 in851.0 mb 25.25 in855.1 mb 25.13 in851.0 mb -
Hour Temp Dew Point Humidity Winds Wind Gusts Pressure Precip Precip Rate Daily Precip Total
04:29 PM 81.5°F27.5°C -5537.2°C - 5.0 mph SW8.0 kmh SW 8.7 mph14.0 kmh 25.13 in851.0 mb 0.00 in0.0 mm 0.00 in0.0 mm 0.00 in0.0 mm
04:24 PM 80.6°F27.0°C -5537.2°C - 7.0 mph SW11.3 kmh SW 10.1 mph16.3 kmh 25.13 in851.0 mb 0.00 in0.0 mm 0.00 in0.0 mm 0.00 in0.0 mm
04:19 PM 80.4°F26.9°C -5537.2°C - 7.0 mph SSW11.3 kmh SSW 11.0 mph17.7 kmh 25.13 in851.0 mb 0.00 in0.0 mm 0.00 in0.0 mm 0.00 in0.0 mm
04:14 PM 80.8°F27.1°C -5537.2°C - 6.0 mph SSW9.7 kmh SSW 11.6 mph18.7 kmh 25.13 in851.0 mb 0.00 in0.0 mm 0.00 in0.0 mm 0.00 in0.0 mm
04:09 PM 81.1°F27.3°C -5537.2°C - 6.0 mph WSW9.7 kmh WSW 10.1 mph16.3 kmh 25.13 in851.0 mb 0.00 in0.0 mm 0.00 in0.0 mm 0.00 in0.0 mm
04:04 PM 79.5°F26.4°C -5537.2°C - 7.0 mph WSW11.3 kmh WSW 12.1 mph19.5 kmh 25.13 in851.0 mb 0.00 in0.0 mm 0.00 in0.0 mm 0.00 in0.0 mm
03:59 PM 80.1°F26.7°C -5537.2°C - 7.0 mph WSW11.3 kmh WSW 12.1 mph19.5 kmh 25.13 in851.0 mb 0.00 in0.0 mm 0.00 in0.0 mm 0.00 in0.0 mm
03:54 PM 80.1°F26.7°C -5537.2°C - 7.0 mph W11.3 kmh W 13.0 mph20.9 kmh 25.13 in851.0 mb 0.00 in0.0 mm 0.00 in0.0 mm 0.00 in0.0 mm
03:49 PM 80.2°F26.8°C -5537.2°C - 7.0 mph WSW11.3 kmh WSW 13.0 mph20.9 kmh 25.16 in852.0 mb 0.00 in0.0 mm 0.00 in0.0 mm 0.00 in0.0 mm
03:44 PM 80.1°F26.7°C -5537.2°C - 6.0 mph W9.7 kmh W 12.1 mph19.5 kmh 25.16 in852.0 mb 0.00 in0.0 mm 0.00 in0.0 mm 0.00 in0.0 mm
03:39 PM 79.9°F26.6°C -5537.2°C - 6.0 mph W9.7 kmh W 9.6 mph15.4 kmh 25.16 in852.0 mb 0.00 in0.0 mm 0.00 in0.0 mm 0.00 in0.0 mm
03:34 PM 79.3°F26.3°C -5537.2°C - 7.0 mph WSW11.3 kmh WSW 14.3 mph23.0 kmh 25.16 in852.0 mb 0.00 in0.0 mm 0.00 in0.0 mm 0.00 in0.0 mm
03:29 PM 79.7°F26.5°C -5537.2°C - 6.0 mph WSW9.7 kmh WSW 11.2 mph18.0 kmh 25.16 in852.0 mb 0.00 in0.0 mm 0.00 in0.0 mm 0.00 in0.0 mm
03:24 PM 79.2°F26.2°C -5537.2°C - 6.0 mph WSW9.7 kmh WSW 19.0 mph30.6 kmh 25.16 in852.0 mb 0.00 in0.0 mm 0.00 in0.0 mm 0.00 in0.0 mm
03:19 PM 79.0°F26.1°C -5537.2°C - 5.0 mph WSW8.0 kmh WSW 9.2 mph14.8 kmh 25.16 in852.0 mb 0.00 in0.0 mm 0.00 in0.0 mm 0.00 in0.0 mm
03:14 PM 79.2°F26.2°C -5537.2°C - 5.0 mph WNW8.0 kmh WNW 11.2 mph18.0 kmh 25.16 in852.0 mb 0.00 in0.0 mm 0.00 in0.0 mm 0.00 in0.0 mm
03:09 PM 79.3°F26.3°C -5537.2°C - 6.0 mph W9.7 kmh W 16.3 mph26.2 kmh 25.16 in852.0 mb 0.00 in0.0 mm 0.00 in0.0 mm 0.00 in0.0 mm
03:04 PM 79.3°F26.3°C -5537.2°C - 7.0 mph WSW11.3 kmh WSW 13.4 mph21.6 kmh 25.16 in852.0 mb 0.00 in0.0 mm 0.00 in0.0 mm 0.00 in0.0 mm
02:59 PM 79.3°F26.3°C -5537.2°C - 5.0 mph W8.0 kmh W 12.5 mph20.1 kmh 25.16 in852.0 mb 0.00 in0.0 mm 0.00 in0.0 mm 0.00 in0.0 mm
02:54 PM 79.7°F26.5°C -5537.2°C - 4.0 mph W6.4 kmh W 6.3 mph10.1 kmh 25.16 in852.0 mb 0.00 in0.0 mm 0.00 in0.0 mm 0.00 in0.0 mm
02:49 PM 79.3°F26.3°C -5537.2°C - 6.0 mph W9.7 kmh W 10.1 mph16.3 kmh 25.16 in852.0 mb 0.00 in0.0 mm 0.00 in0.0 mm 0.00 in0.0 mm
02:44 PM 79.3°F26.3°C -5537.2°C - 8.0 mph WSW12.9 kmh WSW 12.1 mph19.5 kmh 25.16 in852.0 mb 0.00 in0.0 mm 0.00 in0.0 mm 0.00 in0.0 mm
02:39 PM 79.0°F26.1°C -5537.2°C - 7.0 mph SW11.3 kmh SW 14.8 mph23.8 kmh 25.16 in852.0 mb 0.00 in0.0 mm 0.00 in0.0 mm 0.00 in0.0 mm
02:34 PM 80.6°F27.0°C -5537.2°C - 6.0 mph S9.7 kmh S 12.1 mph19.5 kmh 25.16 in852.0 mb 0.00 in0.0 mm 0.00 in0.0 mm 0.00 in0.0 mm
02:29 PM 79.2°F26.2°C -5537.2°C - 7.0 mph SW11.3 kmh SW 9.6 mph15.4 kmh 25.16 in852.0 mb 0.00 in0.0 mm 0.00 in0.0 mm 0.00 in0.0 mm
02:24 PM 79.3°F26.3°C -5537.2°C - 7.0 mph SW11.3 kmh SW 11.6 mph18.7 kmh 25.16 in852.0 mb 0.00 in0.0 mm 0.00 in0.0 mm 0.00 in0.0 mm
02:19 PM 79.3°F26.3°C -5537.2°C - 7.0 mph SW11.3 kmh SW 11.0 mph17.7 kmh 25.16 in852.0 mb 0.00 in0.0 mm 0.00 in0.0 mm 0.00 in0.0 mm
02:14 PM 79.2°F26.2°C -5537.2°C - 6.0 mph W9.7 kmh W 11.0 mph17.7 kmh 25.16 in852.0 mb 0.00 in0.0 mm 0.00 in0.0 mm 0.00 in0.0 mm
02:09 PM 78.8°F26.0°C -5537.2°C - 5.0 mph NW8.0 kmh NW 12.5 mph20.1 kmh 25.16 in852.0 mb 0.00 in0.0 mm 0.00 in0.0 mm 0.00 in0.0 mm
02:04 PM 79.0°F26.1°C -5537.2°C - 5.0 mph NNW8.0 kmh NNW 9.6 mph15.4 kmh 25.16 in852.0 mb 0.00 in0.0 mm 0.00 in0.0 mm 0.00 in0.0 mm
01:59 PM 77.5°F25.3°C -5537.2°C - 5.0 mph NW8.0 kmh NW 11.0 mph17.7 kmh 25.16 in852.0 mb 0.00 in0.0 mm 0.00 in0.0 mm 0.00 in0.0 mm
01:54 PM 78.1°F25.6°C -5537.2°C - 4.0 mph NW6.4 kmh NW 9.2 mph14.8 kmh 25.16 in852.0 mb 0.00 in0.0 mm 0.00 in0.0 mm 0.00 in0.0 mm
01:49 PM 78.8°F26.0°C -5537.2°C - 6.0 mph NW9.7 kmh NW 7.4 mph11.9 kmh 25.19 in853.0 mb 0.00 in0.0 mm 0.00 in0.0 mm 0.00 in0.0 mm
01:44 PM 77.2°F25.1°C -5537.2°C - 6.0 mph W9.7 kmh W 10.1 mph16.3 kmh 25.19 in853.0 mb 0.00 in0.0 mm 0.00 in0.0 mm 0.00 in0.0 mm
01:39 PM 77.5°F25.3°C -5537.2°C - 6.0 mph WSW9.7 kmh WSW 12.5 mph20.1 kmh 25.19 in853.0 mb 0.00 in0.0 mm 0.00 in0.0 mm 0.00 in0.0 mm
01:34 PM 77.0°F25.0°C -5537.2°C - 6.0 mph WSW9.7 kmh WSW 11.0 mph17.7 kmh 25.19 in853.0 mb 0.00 in0.0 mm 0.00 in0.0 mm 0.00 in0.0 mm
01:29 PM 77.0°F25.0°C -5537.2°C - 6.0 mph WSW9.7 kmh WSW 11.0 mph17.7 kmh 25.19 in853.0 mb 0.00 in0.0 mm 0.00 in0.0 mm 0.00 in0.0 mm
01:24 PM 77.2°F25.1°C -5537.2°C - 6.0 mph WSW9.7 kmh WSW 8.7 mph14.0 kmh 25.19 in853.0 mb 0.00 in0.0 mm 0.00 in0.0 mm 0.00 in0.0 mm
01:19 PM 77.0°F25.0°C -5537.2°C - 5.0 mph SSW8.0 kmh SSW 10.5 mph16.9 kmh 25.19 in853.0 mb 0.00 in0.0 mm 0.00 in0.0 mm 0.00 in0.0 mm
01:14 PM 78.1°F25.6°C -5537.2°C - 3.0 mph NE4.8 kmh NE 7.8 mph12.6 kmh 25.19 in853.0 mb 0.00 in0.0 mm 0.00 in0.0 mm 0.00 in0.0 mm
01:09 PM 77.7°F25.4°C -5537.2°C - 5.0 mph WNW8.0 kmh WNW 10.1 mph16.3 kmh 25.19 in853.0 mb 0.00 in0.0 mm 0.00 in0.0 mm 0.00 in0.0 mm
01:04 PM 77.4°F25.2°C -5537.2°C - 5.0 mph W8.0 kmh W 9.6 mph15.4 kmh 25.19 in853.0 mb 0.00 in0.0 mm 0.00 in0.0 mm 0.00 in0.0 mm
12:59 PM 76.3°F24.6°C -5537.2°C - 5.0 mph W8.0 kmh W 9.6 mph15.4 kmh 25.19 in853.0 mb 0.00 in0.0 mm 0.00 in0.0 mm 0.00 in0.0 mm
12:53 PM 76.1°F24.5°C -5537.2°C - 5.0 mph W8.0 kmh W 9.6 mph15.4 kmh 25.19 in853.0 mb 0.00 in0.0 mm 0.00 in0.0 mm 0.00 in0.0 mm
12:48 PM 75.4°F24.1°C -5537.2°C - 6.0 mph N9.7 kmh N 11.0 mph17.7 kmh 25.19 in853.0 mb 0.00 in0.0 mm 0.00 in0.0 mm 0.00 in0.0 mm
12:43 PM 75.6°F24.2°C -5537.2°C - 6.0 mph N9.7 kmh N 9.6 mph15.4 kmh 25.19 in853.0 mb 0.00 in0.0 mm 0.00 in0.0 mm 0.00 in0.0 mm
12:38 PM 76.1°F24.5°C -5537.2°C - 6.0 mph NNW9.7 kmh NNW 10.1 mph16.3 kmh 25.19 in853.0 mb 0.00 in0.0 mm 0.00 in0.0 mm 0.00 in0.0 mm
12:33 PM 76.6°F24.8°C -5537.2°C - 6.0 mph NNE9.7 kmh NNE 12.1 mph19.5 kmh 25.19 in853.0 mb 0.00 in0.0 mm 0.00 in0.0 mm 0.00 in0.0 mm
12:28 PM 75.7°F24.3°C -5537.2°C - 6.0 mph NNE9.7 kmh NNE 9.2 mph14.8 kmh 25.19 in853.0 mb 0.00 in0.0 mm 0.00 in0.0 mm 0.00 in0.0 mm
12:23 PM 74.1°F23.4°C -5537.2°C - 6.0 mph N9.7 kmh N 11.0 mph17.7 kmh 25.19 in853.0 mb 0.00 in0.0 mm 0.00 in0.0 mm 0.00 in0.0 mm
12:18 PM 74.3°F23.5°C -5537.2°C - 6.0 mph NNW9.7 kmh NNW 11.2 mph18.0 kmh 25.22 in854.0 mb 0.00 in0.0 mm 0.00 in0.0 mm 0.00 in0.0 mm
12:13 PM 74.3°F23.5°C -5537.2°C - 6.0 mph NNW9.7 kmh NNW 8.3 mph13.4 kmh 25.22 in854.0 mb 0.00 in0.0 mm 0.00 in0.0 mm 0.00 in0.0 mm
12:08 PM 73.8°F23.2°C -5537.2°C - 5.0 mph NNW8.0 kmh NNW 9.6 mph15.4 kmh 25.22 in854.0 mb 0.00 in0.0 mm 0.00 in0.0 mm 0.00 in0.0 mm
12:03 PM 74.5°F23.6°C -5537.2°C - 5.0 mph NW8.0 kmh NW 8.7 mph14.0 kmh 25.22 in854.0 mb 0.00 in0.0 mm 0.00 in0.0 mm 0.00 in0.0 mm
11:58 AM 73.4°F23.0°C 15.6°F-9.1°C 11% 6.0 mph NW9.7 kmh NW 7.8 mph12.6 kmh 25.22 in854.0 mb 0.00 in0.0 mm 0.00 in0.0 mm 0.00 in0.0 mm
11:53 AM 72.7°F22.6°C 15.1°F-9.4°C 11% 6.0 mph NNW9.7 kmh NNW 9.2 mph14.8 kmh 25.22 in854.0 mb 0.00 in0.0 mm 0.00 in0.0 mm 0.00 in0.0 mm
11:48 AM 72.3°F22.4°C 20.5°F-6.4°C 14% 6.0 mph NW9.7 kmh NW 10.5 mph16.9 kmh 25.22 in854.0 mb 0.00 in0.0 mm 0.00 in0.0 mm 0.00 in0.0 mm
11:43 AM 72.5°F22.5°C 18.9°F-7.3°C 13% 7.0 mph NW11.3 kmh NW 12.1 mph19.5 kmh 25.22 in854.0 mb 0.00 in0.0 mm 0.00 in0.0 mm 0.00 in0.0 mm
11:38 AM 71.8°F22.1°C 23.2°F-4.9°C 16% 7.0 mph NW11.3 kmh NW 10.5 mph16.9 kmh 25.22 in854.0 mb 0.00 in0.0 mm 0.00 in0.0 mm 0.00 in0.0 mm
11:33 AM 71.6°F22.0°C 23.0°F-5.0°C 16% 7.0 mph NW11.3 kmh NW 12.1 mph19.5 kmh 25.22 in854.0 mb 0.00 in0.0 mm 0.00 in0.0 mm 0.00 in0.0 mm
11:28 AM 71.2°F21.8°C 19.6°F-6.9°C 14% 7.0 mph NNW11.3 kmh NNW 12.1 mph19.5 kmh 25.22 in854.0 mb 0.00 in0.0 mm 0.00 in0.0 mm 0.00 in0.0 mm
11:23 AM 71.6°F22.0°C 23.0°F-5.0°C 16% 8.0 mph NW12.9 kmh NW 10.5 mph16.9 kmh 25.22 in854.0 mb 0.00 in0.0 mm 0.00 in0.0 mm 0.00 in0.0 mm
11:18 AM 70.7°F21.5°C 23.7°F-4.6°C 17% 8.0 mph NNW12.9 kmh NNW 12.5 mph20.1 kmh 25.22 in854.0 mb 0.00 in0.0 mm 0.00 in0.0 mm 0.00 in0.0 mm
11:13 AM 70.0°F21.1°C 25.9°F-3.4°C 19% 8.0 mph NNW12.9 kmh NNW 13.0 mph20.9 kmh 25.22 in854.0 mb 0.00 in0.0 mm 0.00 in0.0 mm 0.00 in0.0 mm
11:08 AM 70.0°F21.1°C 23.2°F-4.9°C 17% 8.0 mph NW12.9 kmh NW 11.2 mph18.0 kmh 25.22 in854.0 mb 0.00 in0.0 mm 0.00 in0.0 mm 0.00 in0.0 mm
11:03 AM 69.8°F21.0°C 25.7°F-3.5°C 19% 8.0 mph NW12.9 kmh NW 12.1 mph19.5 kmh 25.22 in854.0 mb 0.00 in0.0 mm 0.00 in0.0 mm 0.00 in0.0 mm
10:58 AM 70.3°F21.3°C 26.1°F-3.3°C 19% 9.0 mph NW14.5 kmh NW 13.4 mph21.6 kmh 25.22 in854.0 mb 0.00 in0.0 mm 0.00 in0.0 mm 0.00 in0.0 mm
10:53 AM 68.9°F20.5°C 22.3°F-5.4°C 17% 8.0 mph NW12.9 kmh NW 14.3 mph23.0 kmh 25.22 in854.0 mb 0.00 in0.0 mm 0.00 in0.0 mm 0.00 in0.0 mm
10:48 AM 69.1°F20.6°C 25.2°F-3.8°C 19% 8.0 mph NW12.9 kmh NW 13.9 mph22.4 kmh 25.22 in854.0 mb 0.00 in0.0 mm 0.00 in0.0 mm 0.00 in0.0 mm
10:43 AM 68.7°F20.4°C 26.1°F-3.3°C 20% 8.0 mph NNW12.9 kmh NNW 11.6 mph18.7 kmh 25.22 in854.0 mb 0.00 in0.0 mm 0.00 in0.0 mm 0.00 in0.0 mm
10:38 AM 68.4°F20.2°C 25.7°F-3.5°C 20% 9.0 mph NNW14.5 kmh NNW 15.4 mph24.8 kmh 25.22 in854.0 mb 0.00 in0.0 mm 0.00 in0.0 mm 0.00 in0.0 mm
10:33 AM 68.0°F20.0°C 27.7°F-2.4°C 22% 8.0 mph NNW12.9 kmh NNW 13.9 mph22.4 kmh 25.22 in854.0 mb 0.00 in0.0 mm 0.00 in0.0 mm 0.00 in0.0 mm
10:28 AM 67.3°F19.6°C 27.1°F-2.7°C 22% 8.0 mph NNW12.9 kmh NNW 12.5 mph20.1 kmh 25.22 in854.0 mb 0.00 in0.0 mm 0.00 in0.0 mm 0.00 in0.0 mm
10:23 AM 66.7°F19.3°C 27.7°F-2.4°C 23% 9.0 mph NNW14.5 kmh NNW 13.4 mph21.6 kmh 25.22 in854.0 mb 0.00 in0.0 mm 0.00 in0.0 mm 0.00 in0.0 mm
10:18 AM 66.9°F19.4°C 27.9°F-2.3°C 23% 9.0 mph NW14.5 kmh NW 13.4 mph21.6 kmh 25.22 in854.0 mb 0.00 in0.0 mm 0.00 in0.0 mm 0.00 in0.0 mm
10:13 AM 66.0°F18.9°C 27.1°F-2.7°C 23% 9.0 mph NW14.5 kmh NW 14.8 mph23.8 kmh 25.22 in854.0 mb 0.00 in0.0 mm 0.00 in0.0 mm 0.00 in0.0 mm
10:08 AM 66.4°F19.1°C 28.6°F-1.9°C 24% 8.0 mph NW12.9 kmh NW 13.0 mph20.9 kmh 25.22 in854.0 mb 0.00 in0.0 mm 0.00 in0.0 mm 0.00 in0.0 mm
10:03 AM 66.0°F18.9°C 28.2°F-2.1°C 24% 8.0 mph NW12.9 kmh NW 11.2 mph18.0 kmh 25.22 in854.0 mb 0.00 in0.0 mm 0.00 in0.0 mm 0.00 in0.0 mm
09:58 AM 65.8°F18.8°C 28.0°F-2.2°C 24% 8.0 mph NNW12.9 kmh NNW 12.1 mph19.5 kmh 25.22 in854.0 mb 0.00 in0.0 mm 0.00 in0.0 mm 0.00 in0.0 mm
09:53 AM 65.7°F18.7°C 27.9°F-2.3°C 24% 8.0 mph N12.9 kmh N 13.4 mph21.6 kmh 25.22 in854.0 mb 0.00 in0.0 mm 0.00 in0.0 mm 0.00 in0.0 mm
09:48 AM 65.7°F18.7°C 27.9°F-2.3°C 24% 8.0 mph N12.9 kmh N 11.6 mph18.7 kmh 25.25 in855.1 mb 0.00 in0.0 mm 0.00 in0.0 mm 0.00 in0.0 mm
09:43 AM 65.1°F18.4°C 28.4°F-2.0°C 25% 8.0 mph N12.9 kmh N 12.1 mph19.5 kmh 25.25 in855.1 mb 0.00 in0.0 mm 0.00 in0.0 mm 0.00 in0.0 mm
09:38 AM 64.4°F18.0°C 27.9°F-2.3°C 25% 8.0 mph N12.9 kmh N 12.1 mph19.5 kmh 25.25 in855.1 mb 0.00 in0.0 mm 0.00 in0.0 mm 0.00 in0.0 mm
09:33 AM 64.4°F18.0°C 27.9°F-2.3°C 25% 8.0 mph NNW12.9 kmh NNW 12.1 mph19.5 kmh 25.25 in855.1 mb 0.00 in0.0 mm 0.00 in0.0 mm 0.00 in0.0 mm
09:28 AM 64.0°F17.8°C 27.5°F-2.5°C 25% 7.0 mph NNW11.3 kmh NNW 11.2 mph18.0 kmh 25.25 in855.1 mb 0.00 in0.0 mm 0.00 in0.0 mm 0.00 in0.0 mm
09:23 AM 64.0°F17.8°C 28.4°F-2.0°C 26% 8.0 mph N12.9 kmh N 10.5 mph16.9 kmh 25.25 in855.1 mb 0.00 in0.0 mm 0.00 in0.0 mm 0.00 in0.0 mm
09:18 AM 63.5°F17.5°C 28.0°F-2.2°C 26% 8.0 mph N12.9 kmh N 13.9 mph22.4 kmh 25.25 in855.1 mb 0.00 in0.0 mm 0.00 in0.0 mm 0.00 in0.0 mm
09:13 AM 63.3°F17.4°C 27.9°F-2.3°C 26% 7.0 mph N11.3 kmh N 10.1 mph16.3 kmh 25.25 in855.1 mb 0.00 in0.0 mm 0.00 in0.0 mm 0.00 in0.0 mm
09:08 AM 63.7°F17.6°C 30.0°F-1.1°C 28% 8.0 mph N12.9 kmh N 12.1 mph19.5 kmh 25.25 in855.1 mb 0.00 in0.0 mm 0.00 in0.0 mm 0.00 in0.0 mm
09:03 AM 62.6°F17.0°C 29.8°F-1.2°C 29% 8.0 mph N12.9 kmh N 12.5 mph20.1 kmh 25.25 in855.1 mb 0.00 in0.0 mm 0.00 in0.0 mm 0.00 in0.0 mm
08:58 AM 62.2°F16.8°C 32.7°F0.4°C 33% 8.0 mph N12.9 kmh N 12.5 mph20.1 kmh 25.25 in855.1 mb 0.00 in0.0 mm 0.00 in0.0 mm 0.00 in0.0 mm
08:53 AM 61.7°F16.5°C 33.1°F0.6°C 34% 9.0 mph N14.5 kmh N 13.4 mph21.6 kmh 25.25 in855.1 mb 0.00 in0.0 mm 0.00 in0.0 mm 0.00 in0.0 mm
08:48 AM 61.3°F16.3°C 32.7°F0.4°C 34% 8.0 mph N12.9 kmh N 15.4 mph24.8 kmh 25.22 in854.0 mb 0.00 in0.0 mm 0.00 in0.0 mm 0.00 in0.0 mm
08:43 AM 60.8°F16.0°C 32.2°F0.1°C 34% 6.0 mph N9.7 kmh N 11.0 mph17.7 kmh 25.22 in854.0 mb 0.00 in0.0 mm 0.00 in0.0 mm 0.00 in0.0 mm
08:38 AM 60.8°F16.0°C 32.2°F0.1°C 34% 7.0 mph NNW11.3 kmh NNW 9.6 mph15.4 kmh 25.22 in854.0 mb 0.00 in0.0 mm 0.00 in0.0 mm 0.00 in0.0 mm
08:33 AM 59.7°F15.4°C 32.0°F0.0°C 35% 7.0 mph N11.3 kmh N 10.5 mph16.9 kmh 25.25 in855.1 mb 0.00 in0.0 mm 0.00 in0.0 mm 0.00 in0.0 mm
08:28 AM 59.7°F15.4°C 31.3°F-0.4°C 34% 7.0 mph N11.3 kmh N 11.0 mph17.7 kmh 25.25 in855.1 mb 0.00 in0.0 mm 0.00 in0.0 mm 0.00 in0.0 mm
08:23 AM 59.9°F15.5°C 31.5°F-0.3°C 34% 7.0 mph N11.3 kmh N 10.5 mph16.9 kmh 25.25 in855.1 mb 0.00 in0.0 mm 0.00 in0.0 mm 0.00 in0.0 mm
08:18 AM 59.9°F15.5°C 31.5°F-0.3°C 34% 6.0 mph NNW9.7 kmh NNW 8.7 mph14.0 kmh 25.22 in854.0 mb 0.00 in0.0 mm 0.00 in0.0 mm 0.00 in0.0 mm
08:13 AM 59.9°F15.5°C 31.5°F-0.3°C 34% 6.0 mph NNW9.7 kmh NNW 8.3 mph13.4 kmh 25.22 in854.0 mb 0.00 in0.0 mm 0.00 in0.0 mm 0.00 in0.0 mm
08:08 AM 59.7°F15.4°C 31.3°F-0.4°C 34% 6.0 mph NNW9.7 kmh NNW 8.3 mph13.4 kmh 25.22 in854.0 mb 0.00 in0.0 mm 0.00 in0.0 mm 0.00 in0.0 mm
08:03 AM 59.5°F15.3°C 31.1°F-0.5°C 34% 6.0 mph NNW9.7 kmh NNW 7.4 mph11.9 kmh 25.22 in854.0 mb 0.00 in0.0 mm 0.00 in0.0 mm 0.00 in0.0 mm
07:58 AM 59.4°F15.2°C 30.9°F-0.6°C 34% 6.0 mph N9.7 kmh N 10.1 mph16.3 kmh 25.22 in854.0 mb 0.00 in0.0 mm 0.00 in0.0 mm 0.00 in0.0 mm
07:53 AM 59.2°F15.1°C 30.9°F-0.6°C 34% 6.0 mph N9.7 kmh N 8.7 mph14.0 kmh 25.22 in854.0 mb 0.00 in0.0 mm 0.00 in0.0 mm 0.00 in0.0 mm
07:48 AM 58.8°F14.9°C 31.3°F-0.4°C 35% 6.0 mph N9.7 kmh N 9.2 mph14.8 kmh 25.22 in854.0 mb 0.00 in0.0 mm 0.00 in0.0 mm 0.00 in0.0 mm
07:43 AM 58.1°F14.5°C 31.3°F-0.4°C 36% 7.0 mph N11.3 kmh N 10.5 mph16.9 kmh 25.22 in854.0 mb 0.00 in0.0 mm 0.00 in0.0 mm 0.00 in0.0 mm
07:38 AM 58.1°F14.5°C 31.3°F-0.4°C 36% 7.0 mph N11.3 kmh N 10.5 mph16.9 kmh 25.22 in854.0 mb 0.00 in0.0 mm 0.00 in0.0 mm 0.00 in0.0 mm
07:33 AM 57.7°F14.3°C 30.9°F-0.6°C 36% 7.0 mph N11.3 kmh N 9.6 mph15.4 kmh 25.22 in854.0 mb 0.00 in0.0 mm 0.00 in0.0 mm 0.00 in0.0 mm
07:28 AM 57.9°F14.4°C 31.1°F-0.5°C 36% 6.0 mph N9.7 kmh N 9.2 mph14.8 kmh 25.22 in854.0 mb 0.00 in0.0 mm 0.00 in0.0 mm 0.00 in0.0 mm
07:23 AM 58.1°F14.5°C 31.3°F-0.4°C 36% 6.0 mph N9.7 kmh N 9.2 mph14.8 kmh 25.22 in854.0 mb 0.00 in0.0 mm 0.00 in0.0 mm 0.00 in0.0 mm
07:18 AM 57.6°F14.2°C 31.5°F-0.3°C 37% 6.0 mph N9.7 kmh N 9.2 mph14.8 kmh 25.22 in854.0 mb 0.00 in0.0 mm 0.00 in0.0 mm 0.00 in0.0 mm
07:13 AM 57.0°F13.9°C 30.9°F-0.6°C 37% 7.0 mph N11.3 kmh N 11.0 mph17.7 kmh 25.22 in854.0 mb 0.00 in0.0 mm 0.00 in0.0 mm 0.00 in0.0 mm
07:08 AM 56.8°F13.8°C 31.5°F-0.3°C 38% 7.0 mph N11.3 kmh N 11.0 mph17.7 kmh 25.22 in854.0 mb 0.00 in0.0 mm 0.00 in0.0 mm 0.00 in0.0 mm
07:03 AM 56.5°F13.6°C 31.8°F-0.1°C 39% 6.0 mph NNE9.7 kmh NNE 9.6 mph15.4 kmh 25.22 in854.0 mb 0.00 in0.0 mm 0.00 in0.0 mm 0.00 in0.0 mm
06:58 AM 55.9°F13.3°C 32.0°F0.0°C 40% 5.0 mph N8.0 kmh N 7.8 mph12.6 kmh 25.22 in854.0 mb 0.00 in0.0 mm 0.00 in0.0 mm 0.00 in0.0 mm
06:53 AM 55.6°F13.1°C 31.6°F-0.2°C 40% 6.0 mph N9.7 kmh N 7.8 mph12.6 kmh 25.22 in854.0 mb 0.00 in0.0 mm 0.00 in0.0 mm 0.00 in0.0 mm
06:48 AM 55.2°F12.9°C 31.3°F-0.4°C 40% 6.0 mph N9.7 kmh N 8.3 mph13.4 kmh 25.22 in854.0 mb 0.00 in0.0 mm 0.00 in0.0 mm 0.00 in0.0 mm
06:43 AM 55.0°F12.8°C 31.8°F-0.1°C 41% 6.0 mph N9.7 kmh N 7.8 mph12.6 kmh 25.22 in854.0 mb 0.00 in0.0 mm 0.00 in0.0 mm 0.00 in0.0 mm
06:38 AM 54.9°F12.7°C 32.2°F0.1°C 42% 6.0 mph N9.7 kmh N 8.3 mph13.4 kmh 25.22 in854.0 mb 0.00 in0.0 mm 0.00 in0.0 mm 0.00 in0.0 mm
06:33 AM 54.7°F12.6°C 33.3°F0.7°C 44% 4.0 mph N6.4 kmh N 7.8 mph12.6 kmh 25.22 in854.0 mb 0.00 in0.0 mm 0.00 in0.0 mm 0.00 in0.0 mm
06:28 AM 53.1°F11.7°C 32.9°F0.5°C 46% 3.0 mph N4.8 kmh N 6.7 mph10.8 kmh 25.22 in854.0 mb 0.00 in0.0 mm 0.00 in0.0 mm 0.00 in0.0 mm
06:23 AM 53.1°F11.7°C 32.9°F0.5°C 46% 2.0 mph NE3.2 kmh NE 5.4 mph8.7 kmh 25.22 in854.0 mb 0.00 in0.0 mm 0.00 in0.0 mm 0.00 in0.0 mm
06:18 AM 52.9°F11.6°C 32.7°F0.4°C 46% 2.0 mph NE3.2 kmh NE 4.5 mph7.2 kmh 25.22 in854.0 mb 0.00 in0.0 mm 0.00 in0.0 mm 0.00 in0.0 mm
06:13 AM 52.7°F11.5°C 32.5°F0.3°C 46% 2.0 mph NE3.2 kmh NE 4.5 mph7.2 kmh 25.22 in854.0 mb 0.00 in0.0 mm 0.00 in0.0 mm 0.00 in0.0 mm
06:08 AM 53.2°F11.8°C 31.3°F-0.4°C 43% 3.0 mph NE4.8 kmh NE 4.9 mph7.9 kmh 25.22 in854.0 mb 0.00 in0.0 mm 0.00 in0.0 mm 0.00 in0.0 mm
06:03 AM 54.5°F12.5°C 31.8°F-0.1°C 42% 4.0 mph NNE6.4 kmh NNE 6.9 mph11.1 kmh 25.22 in854.0 mb 0.00 in0.0 mm 0.00 in0.0 mm 0.00 in0.0 mm
05:58 AM 55.0°F12.8°C 32.4°F0.2°C 42% 5.0 mph N8.0 kmh N 7.4 mph11.9 kmh 25.22 in854.0 mb 0.00 in0.0 mm 0.00 in0.0 mm 0.00 in0.0 mm
05:53 AM 55.2°F12.9°C 32.0°F0.0°C 41% 6.0 mph N9.7 kmh N 9.2 mph14.8 kmh 25.22 in854.0 mb 0.00 in0.0 mm 0.00 in0.0 mm 0.00 in0.0 mm
05:48 AM 55.6°F13.1°C 32.9°F0.5°C 42% 6.0 mph N9.7 kmh N 10.1 mph16.3 kmh 25.22 in854.0 mb 0.00 in0.0 mm 0.00 in0.0 mm 0.00 in0.0 mm
05:43 AM 54.7°F12.6°C 33.8°F1.0°C 45% 4.0 mph NNE6.4 kmh NNE 8.3 mph13.4 kmh 25.22 in854.0 mb 0.00 in0.0 mm 0.00 in0.0 mm 0.00 in0.0 mm
05:38 AM 52.7°F11.5°C 32.0°F0.0°C 45% 3.0 mph NE4.8 kmh NE 4.9 mph7.9 kmh 25.22 in854.0 mb 0.00 in0.0 mm 0.00 in0.0 mm 0.00 in0.0 mm
05:33 AM 52.9°F11.6°C 30.9°F-0.6°C 43% 3.0 mph NE4.8 kmh NE 4.5 mph7.2 kmh 25.22 in854.0 mb 0.00 in0.0 mm 0.00 in0.0 mm 0.00 in0.0 mm
05:28 AM 53.4°F11.9°C 30.9°F-0.6°C 42% 4.0 mph NNE6.4 kmh NNE 5.8 mph9.3 kmh 25.22 in854.0 mb 0.00 in0.0 mm 0.00 in0.0 mm 0.00 in0.0 mm
05:23 AM 54.1°F12.3°C 30.4°F-0.9°C 40% 4.0 mph NNE6.4 kmh NNE 6.7 mph10.8 kmh 25.22 in854.0 mb 0.00 in0.0 mm 0.00 in0.0 mm 0.00 in0.0 mm
05:18 AM 55.6°F13.1°C 30.4°F-0.9°C 38% 4.0 mph N6.4 kmh N 6.7 mph10.8 kmh 25.22 in854.0 mb 0.00 in0.0 mm 0.00 in0.0 mm 0.00 in0.0 mm
05:13 AM 55.8°F13.2°C 31.1°F-0.5°C 39% 4.0 mph N6.4 kmh N 6.7 mph10.8 kmh 25.22 in854.0 mb 0.00 in0.0 mm 0.00 in0.0 mm 0.00 in0.0 mm
05:08 AM 54.5°F12.5°C 29.5°F-1.4°C 38% 3.0 mph N4.8 kmh N 5.8 mph9.3 kmh 25.22 in854.0 mb 0.00 in0.0 mm 0.00 in0.0 mm 0.00 in0.0 mm
05:03 AM 55.4°F13.0°C 29.5°F-1.4°C 37% 3.0 mph NNW4.8 kmh NNW 4.5 mph7.2 kmh 25.22 in854.0 mb 0.00 in0.0 mm 0.00 in0.0 mm 0.00 in0.0 mm
04:58 AM 56.5°F13.6°C 29.1°F-1.6°C 35% 3.0 mph NNW4.8 kmh NNW 4.9 mph7.9 kmh 25.22 in854.0 mb 0.00 in0.0 mm 0.00 in0.0 mm 0.00 in0.0 mm
04:53 AM 57.7°F14.3°C 30.2°F-1.0°C 35% 4.0 mph NNW6.4 kmh NNW 5.4 mph8.7 kmh 25.22 in854.0 mb 0.00 in0.0 mm 0.00 in0.0 mm 0.00 in0.0 mm
04:48 AM 58.1°F14.5°C 29.8°F-1.2°C 34% 4.0 mph N6.4 kmh N 5.8 mph9.3 kmh 25.22 in854.0 mb 0.00 in0.0 mm 0.00 in0.0 mm 0.00 in0.0 mm
04:43 AM 57.7°F14.3°C 30.2°F-1.0°C 35% 4.0 mph N6.4 kmh N 4.9 mph7.9 kmh 25.22 in854.0 mb 0.00 in0.0 mm 0.00 in0.0 mm 0.00 in0.0 mm
04:38 AM 57.4°F14.1°C 30.7°F-0.7°C 36% 4.0 mph NNE6.4 kmh NNE 6.3 mph10.1 kmh 25.22 in854.0 mb 0.00 in0.0 mm 0.00 in0.0 mm 0.00 in0.0 mm
04:33 AM 56.8°F13.8°C 30.2°F-1.0°C 36% 3.0 mph NNE4.8 kmh NNE 5.8 mph9.3 kmh 25.22 in854.0 mb 0.00 in0.0 mm 0.00 in0.0 mm 0.00 in0.0 mm
04:28 AM 56.3°F13.5°C 29.7°F-1.3°C 36% 3.0 mph NNE4.8 kmh NNE 4.5 mph7.2 kmh 25.22 in854.0 mb 0.00 in0.0 mm 0.00 in0.0 mm 0.00 in0.0 mm
04:23 AM 56.8°F13.8°C 30.2°F-1.0°C 36% 4.0 mph NNE6.4 kmh NNE 5.8 mph9.3 kmh 25.22 in854.0 mb 0.00 in0.0 mm 0.00 in0.0 mm 0.00 in0.0 mm
04:18 AM 57.2°F14.0°C 30.6°F-0.8°C 36% 4.0 mph NE6.4 kmh NE 6.7 mph10.8 kmh 25.19 in853.0 mb 0.00 in0.0 mm 0.00 in0.0 mm 0.00 in0.0 mm
04:12 AM 57.0°F13.9°C 29.7°F-1.3°C 35% 4.0 mph NNE6.4 kmh NNE 8.7 mph14.0 kmh 25.19 in853.0 mb 0.00 in0.0 mm 0.00 in0.0 mm 0.00 in0.0 mm
04:07 AM 57.6°F14.2°C 30.2°F-1.0°C 35% 5.0 mph NNE8.0 kmh NNE 6.9 mph11.1 kmh 25.19 in853.0 mb 0.00 in0.0 mm 0.00 in0.0 mm 0.00 in0.0 mm
04:02 AM 58.1°F14.5°C 30.6°F-0.8°C 35% 6.0 mph NNE9.7 kmh NNE 8.7 mph14.0 kmh 25.19 in853.0 mb 0.00 in0.0 mm 0.00 in0.0 mm 0.00 in0.0 mm
03:57 AM 58.1°F14.5°C 30.6°F-0.8°C 35% 6.0 mph NNE9.7 kmh NNE 9.2 mph14.8 kmh 25.19 in853.0 mb 0.00 in0.0 mm 0.00 in0.0 mm 0.00 in0.0 mm
03:52 AM 58.1°F14.5°C 30.6°F-0.8°C 35% 6.0 mph NNE9.7 kmh NNE 9.2 mph14.8 kmh 25.19 in853.0 mb 0.00 in0.0 mm 0.00 in0.0 mm 0.00 in0.0 mm
03:47 AM 58.1°F14.5°C 29.8°F-1.2°C 34% 6.0 mph NNE9.7 kmh NNE 9.2 mph14.8 kmh 25.19 in853.0 mb 0.00 in0.0 mm 0.00 in0.0 mm 0.00 in0.0 mm
03:42 AM 58.1°F14.5°C 29.8°F-1.2°C 34% 6.0 mph NNE9.7 kmh NNE 11.0 mph17.7 kmh 25.19 in853.0 mb 0.00 in0.0 mm 0.00 in0.0 mm 0.00 in0.0 mm
03:37 AM 58.1°F14.5°C 30.6°F-0.8°C 35% 6.0 mph NNE9.7 kmh NNE 8.7 mph14.0 kmh 25.19 in853.0 mb 0.00 in0.0 mm 0.00 in0.0 mm 0.00 in0.0 mm
03:32 AM 58.1°F14.5°C 29.8°F-1.2°C 34% 6.0 mph NNE9.7 kmh NNE 8.3 mph13.4 kmh 25.19 in853.0 mb 0.00 in0.0 mm 0.00 in0.0 mm 0.00 in0.0 mm
03:27 AM 58.8°F14.9°C 30.6°F-0.8°C 34% 7.0 mph NNE11.3 kmh NNE 11.2 mph18.0 kmh 25.19 in853.0 mb 0.00 in0.0 mm 0.00 in0.0 mm 0.00 in0.0 mm
03:22 AM 59.0°F15.0°C 30.7°F-0.7°C 34% 6.0 mph NNE9.7 kmh NNE 11.6 mph18.7 kmh 25.19 in853.0 mb 0.00 in0.0 mm 0.00 in0.0 mm 0.00 in0.0 mm
03:17 AM 57.7°F14.3°C 30.2°F-1.0°C 35% 6.0 mph NNE9.7 kmh NNE 9.2 mph14.8 kmh 25.19 in853.0 mb 0.00 in0.0 mm 0.00 in0.0 mm 0.00 in0.0 mm
03:12 AM 57.6°F14.2°C 30.2°F-1.0°C 35% 5.0 mph NNE8.0 kmh NNE 8.3 mph13.4 kmh 25.19 in853.0 mb 0.00 in0.0 mm 0.00 in0.0 mm 0.00 in0.0 mm
03:07 AM 57.6°F14.2°C 30.2°F-1.0°C 35% 5.0 mph NNE8.0 kmh NNE 7.8 mph12.6 kmh 25.19 in853.0 mb 0.00 in0.0 mm 0.00 in0.0 mm 0.00 in0.0 mm
03:02 AM 58.5°F14.7°C 30.2°F-1.0°C 34% 5.0 mph NNE8.0 kmh NNE 7.4 mph11.9 kmh 25.19 in853.0 mb 0.00 in0.0 mm 0.00 in0.0 mm 0.00 in0.0 mm
02:57 AM 58.1°F14.5°C 30.6°F-0.8°C 35% 4.0 mph NNE6.4 kmh NNE 6.7 mph10.8 kmh 25.19 in853.0 mb 0.00 in0.0 mm 0.00 in0.0 mm 0.00 in0.0 mm
02:52 AM 57.4°F14.1°C 30.0°F-1.1°C 35% 4.0 mph NE6.4 kmh NE 4.9 mph7.9 kmh 25.19 in853.0 mb 0.00 in0.0 mm 0.00 in0.0 mm 0.00 in0.0 mm
02:47 AM 57.0°F13.9°C 29.7°F-1.3°C 35% 4.0 mph NNE6.4 kmh NNE 4.9 mph7.9 kmh 25.19 in853.0 mb 0.00 in0.0 mm 0.00 in0.0 mm 0.00 in0.0 mm
02:42 AM 58.3°F14.6°C 29.3°F-1.5°C 33% 4.0 mph NNE6.4 kmh NNE 5.8 mph9.3 kmh 25.19 in853.0 mb 0.00 in0.0 mm 0.00 in0.0 mm 0.00 in0.0 mm
02:37 AM 58.5°F14.7°C 27.9°F-2.3°C 31% 4.0 mph N6.4 kmh N 6.3 mph10.1 kmh 25.19 in853.0 mb 0.00 in0.0 mm 0.00 in0.0 mm 0.00 in0.0 mm
02:32 AM 60.1°F15.6°C 27.7°F-2.4°C 29% 5.0 mph N8.0 kmh N 6.3 mph10.1 kmh 25.19 in853.0 mb 0.00 in0.0 mm 0.00 in0.0 mm 0.00 in0.0 mm
02:27 AM 60.1°F15.6°C 27.7°F-2.4°C 29% 4.0 mph N6.4 kmh N 7.4 mph11.9 kmh 25.19 in853.0 mb 0.00 in0.0 mm 0.00 in0.0 mm 0.00 in0.0 mm
02:22 AM 58.6°F14.8°C 28.0°F-2.2°C 31% 2.0 mph SE3.2 kmh SE 7.4 mph11.9 kmh 25.19 in853.0 mb 0.00 in0.0 mm 0.00 in0.0 mm 0.00 in0.0 mm
02:17 AM 59.2°F15.1°C 28.6°F-1.9°C 31% Calm Calm 3.6 mph5.8 kmh 25.19 in853.0 mb 0.00 in0.0 mm 0.00 in0.0 mm 0.00 in0.0 mm
02:12 AM 58.6°F14.8°C 28.9°F-1.7°C 32% Calm Calm -- 25.19 in853.0 mb 0.00 in0.0 mm 0.00 in0.0 mm 0.00 in0.0 mm
02:07 AM 58.8°F14.9°C 28.9°F-1.7°C 32% 1.0 mph SE1.6 kmh SE 3.1 mph5.0 kmh 25.19 in853.0 mb 0.00 in0.0 mm 0.00 in0.0 mm 0.00 in0.0 mm
02:02 AM 58.6°F14.8°C 29.7°F-1.3°C 33% 1.0 mph SE1.6 kmh SE 4.0 mph6.4 kmh 25.19 in853.0 mb 0.00 in0.0 mm 0.00 in0.0 mm 0.00 in0.0 mm
01:57 AM 57.9°F14.4°C 28.9°F-1.7°C 33% Calm Calm -- 25.19 in853.0 mb 0.00 in0.0 mm 0.00 in0.0 mm 0.00 in0.0 mm
01:52 AM 58.3°F14.6°C 27.9°F-2.3°C 31% Calm Calm -- 25.19 in853.0 mb 0.00 in0.0 mm 0.00 in0.0 mm 0.00 in0.0 mm
01:47 AM 58.5°F14.7°C 27.9°F-2.3°C 31% Calm Calm 3.6 mph5.8 kmh 25.19 in853.0 mb 0.00 in0.0 mm 0.00 in0.0 mm 0.00 in0.0 mm
01:42 AM 59.0°F15.0°C 27.7°F-2.4°C 30% Calm Calm -- 25.19 in853.0 mb 0.00 in0.0 mm 0.00 in0.0 mm 0.00 in0.0 mm
01:37 AM 59.0°F15.0°C 28.4°F-2.0°C 31% Calm Calm -- 25.19 in853.0 mb 0.00 in0.0 mm 0.00 in0.0 mm 0.00 in0.0 mm
01:32 AM 58.6°F14.8°C 28.9°F-1.7°C 32% Calm Calm -- 25.19 in853.0 mb 0.00 in0.0 mm 0.00 in0.0 mm 0.00 in0.0 mm
01:27 AM 58.1°F14.5°C 28.4°F-2.0°C 32% Calm Calm -- 25.19 in853.0 mb 0.00 in0.0 mm 0.00 in0.0 mm 0.00 in0.0 mm
01:22 AM 58.5°F14.7°C 29.5°F-1.4°C 33% Calm Calm -- 25.19 in853.0 mb 0.00 in0.0 mm 0.00 in0.0 mm 0.00 in0.0 mm
01:17 AM 58.8°F14.9°C 27.5°F-2.5°C 30% Calm Calm 3.1 mph5.0 kmh 25.19 in853.0 mb 0.00 in0.0 mm 0.00 in0.0 mm 0.00 in0.0 mm
01:12 AM 59.2°F15.1°C 27.7°F-2.4°C 30% Calm Calm -- 25.19 in853.0 mb 0.00 in0.0 mm 0.00 in0.0 mm 0.00 in0.0 mm
01:07 AM 59.4°F15.2°C 27.9°F-2.3°C 30% Calm Calm 2.7 mph4.3 kmh 25.19 in853.0 mb 0.00 in0.0 mm 0.00 in0.0 mm 0.00 in0.0 mm
01:02 AM 59.2°F15.1°C 27.7°F-2.4°C 30% Calm Calm -- 25.19 in853.0 mb 0.00 in0.0 mm 0.00 in0.0 mm 0.00 in0.0 mm
12:57 AM 59.2°F15.1°C 27.7°F-2.4°C 30% 1.0 mph SE1.6 kmh SE 3.6 mph5.8 kmh 25.19 in853.0 mb 0.00 in0.0 mm 0.00 in0.0 mm 0.00 in0.0 mm
12:52 AM 59.4°F15.2°C 27.9°F-2.3°C 30% 1.0 mph SE1.6 kmh SE 3.6 mph5.8 kmh 25.19 in853.0 mb 0.00 in0.0 mm 0.00 in0.0 mm 0.00 in0.0 mm
12:47 AM 59.5°F15.3°C 28.0°F-2.2°C 30% 1.0 mph SE1.6 kmh SE 3.1 mph5.0 kmh 25.19 in853.0 mb 0.00 in0.0 mm 0.00 in0.0 mm 0.00 in0.0 mm
12:42 AM 59.7°F15.4°C 27.5°F-2.5°C 29% Calm Calm 4.0 mph6.4 kmh 25.19 in853.0 mb 0.00 in0.0 mm 0.00 in0.0 mm 0.00 in0.0 mm
12:37 AM 59.7°F15.4°C 26.6°F-3.0°C 28% Calm Calm -- 25.19 in853.0 mb 0.00 in0.0 mm 0.00 in0.0 mm 0.00 in0.0 mm
12:32 AM 60.1°F15.6°C 27.0°F-2.8°C 28% 2.0 mph SE3.2 kmh SE 4.0 mph6.4 kmh 25.19 in853.0 mb 0.00 in0.0 mm 0.00 in0.0 mm 0.00 in0.0 mm
12:27 AM 60.4°F15.8°C 26.2°F-3.2°C 27% 3.0 mph SE4.8 kmh SE 5.4 mph8.7 kmh 25.19 in853.0 mb 0.00 in0.0 mm 0.00 in0.0 mm 0.00 in0.0 mm
12:22 AM 60.4°F15.8°C 26.2°F-3.2°C 27% 2.0 mph SE3.2 kmh SE 6.3 mph10.1 kmh 25.19 in853.0 mb 0.00 in0.0 mm 0.00 in0.0 mm 0.00 in0.0 mm
12:17 AM 60.6°F15.9°C 26.4°F-3.1°C 27% Calm Calm 4.5 mph7.2 kmh 25.19 in853.0 mb 0.00 in0.0 mm 0.00 in0.0 mm 0.00 in0.0 mm
12:12 AM 60.6°F15.9°C 25.5°F-3.6°C 26% Calm Calm 3.6 mph5.8 kmh 25.19 in853.0 mb 0.00 in0.0 mm 0.00 in0.0 mm 0.00 in0.0 mm
12:07 AM 61.0°F16.1°C 25.9°F-3.4°C 26% Calm Calm -- 25.19 in853.0 mb 0.00 in0.0 mm 0.00 in0.0 mm 0.00 in0.0 mm
12:02 AM 61.3°F16.3°C 26.2°F-3.2°C 26% 1.0 mph SE1.6 kmh SE -- 25.19 in853.0 mb 0.00 in0.0 mm 0.00 in0.0 mm 0.00 in0.0 mm